createdAt,value
2023-02-19T00:00:57.721Z,35.3880
2023-02-19T00:01:59.962Z,35.3880
2023-02-19T00:03:02.269Z,35.4210
2023-02-19T00:04:04.504Z,35.4300
2023-02-19T00:05:06.789Z,35.4590
2023-02-19T00:06:08.971Z,35.4440
2023-02-19T00:07:11.178Z,35.4530
2023-02-19T00:08:13.456Z,35.4530
2023-02-19T00:09:13.619Z,35.4650
2023-02-19T00:10:15.870Z,35.4590
2023-02-19T00:11:18.208Z,35.4740
2023-02-19T00:12:20.528Z,35.4420
2023-02-19T00:13:22.702Z,35.4270
2023-02-19T00:14:24.981Z,35.4590
2023-02-19T00:15:25.100Z,35.4300
2023-02-19T00:16:27.383Z,35.4430
2023-02-19T00:17:29.627Z,35.4480
2023-02-19T00:18:31.901Z,35.4380
2023-02-19T00:19:34.168Z,35.4840
2023-02-19T00:20:36.439Z,35.4490
2023-02-19T00:21:38.735Z,35.4140
2023-02-19T00:22:40.971Z,35.4020
2023-02-19T00:23:41.101Z,35.4080
2023-02-19T00:24:43.376Z,35.4070
2023-02-19T00:25:45.663Z,35.4140
2023-02-19T00:26:48.004Z,35.3970
2023-02-19T00:27:50.297Z,35.3970
2023-02-19T00:28:52.522Z,35.3740
2023-02-19T00:29:54.807Z,35.3570
2023-02-19T00:30:57.099Z,35.3600
2023-02-19T00:31:57.343Z,35.3650
2023-02-19T00:32:59.451Z,35.3600
2023-02-19T00:34:01.744Z,35.3840
2023-02-19T00:35:03.965Z,35.3730
2023-02-19T00:36:06.214Z,35.3600
2023-02-19T00:37:08.545Z,35.3430
2023-02-19T00:38:10.792Z,35.3260
2023-02-19T00:39:13.080Z,35.3090
2023-02-19T00:40:13.210Z,35.3150
2023-02-19T00:41:15.474Z,35.2850
2023-02-19T00:42:17.792Z,35.2800
2023-02-19T00:43:19.976Z,35.2720
2023-02-19T00:44:22.225Z,35.2400
2023-02-19T00:45:24.502Z,35.2880
2023-02-19T00:46:26.934Z,35.2690
2023-02-19T00:47:29.071Z,35.2630
2023-02-19T00:48:29.187Z,35.2580
2023-02-19T00:49:31.465Z,35.2350
2023-02-19T00:50:33.772Z,35.2450
2023-02-19T00:51:36.072Z,35.2380
2023-02-19T00:52:38.403Z,35.2640
2023-02-19T00:53:40.665Z,35.2360
2023-02-19T00:54:40.821Z,35.2450
2023-02-19T00:55:42.006Z,35.2470
2023-02-19T00:56:42.164Z,35.3830
2023-02-19T00:57:44.469Z,35.4730
2023-02-19T00:58:46.752Z,35.5170
2023-02-19T00:59:49.013Z,35.5480
2023-02-19T01:00:51.314Z,35.5720
2023-02-19T01:01:53.750Z,35.6150
2023-02-19T01:02:55.943Z,35.5930
2023-02-19T01:03:56.066Z,35.5980
2023-02-19T01:04:58.370Z,35.6020
2023-02-19T01:06:00.644Z,35.6020
2023-02-19T01:07:02.949Z,35.5960
2023-02-19T01:08:05.262Z,35.6030
2023-02-19T01:09:07.543Z,35.6090
2023-02-19T01:10:09.820Z,35.5970
2023-02-19T01:11:10.506Z,35.5800
2023-02-19T01:12:12.328Z,35.5690
2023-02-19T01:13:14.715Z,35.5750
2023-02-19T01:14:14.921Z,35.5800
2023-02-19T01:15:17.189Z,35.5770
2023-02-19T01:16:19.622Z,35.5600
2023-02-19T01:17:21.860Z,35.6010
2023-02-19T01:18:24.240Z,35.5770
2023-02-19T01:19:26.502Z,35.5700
2023-02-19T01:20:28.841Z,35.5540
2023-02-19T01:21:31.195Z,35.5600
2023-02-19T01:22:33.514Z,35.5540
2023-02-19T01:23:33.751Z,35.5450
2023-02-19T01:24:35.988Z,35.5230
2023-02-19T01:25:38.303Z,35.5230
2023-02-19T01:26:40.639Z,35.5290
2023-02-19T01:27:40.764Z,35.5440
2023-02-19T01:28:43.052Z,35.5500
2023-02-19T01:29:45.346Z,35.5380
2023-02-19T01:30:47.576Z,35.5230
2023-02-19T01:31:47.746Z,35.5020
2023-02-19T01:32:49.816Z,35.5150
2023-02-19T01:33:52.165Z,35.5080
2023-02-19T01:34:54.259Z,35.4910
2023-02-19T01:35:56.519Z,35.4680
2023-02-19T01:36:56.570Z,35.4800
2023-02-19T01:37:58.803Z,35.4800
2023-02-19T01:39:01.129Z,35.4680
2023-02-19T01:40:03.434Z,35.4700
2023-02-19T01:41:03.587Z,35.4570
2023-02-19T01:42:05.826Z,35.4270
2023-02-19T01:43:08.129Z,35.4470
2023-02-19T01:44:10.456Z,35.4470
2023-02-19T01:45:12.757Z,35.4470
2023-02-19T01:46:15.048Z,35.4500
2023-02-19T01:47:17.344Z,35.4240
2023-02-19T01:48:17.507Z,35.4180
2023-02-19T01:49:19.859Z,35.4390
2023-02-19T01:50:22.132Z,35.4270
2023-02-19T01:51:24.397Z,35.4500
2023-02-19T01:52:26.683Z,35.4450
2023-02-19T01:53:28.977Z,35.4580
2023-02-19T01:54:31.314Z,35.4280
2023-02-19T01:55:31.434Z,35.4100
2023-02-19T01:56:33.732Z,35.4050
2023-02-19T01:57:36.005Z,35.3860
2023-02-19T01:58:38.339Z,35.3810
2023-02-19T01:59:40.691Z,35.3520
2023-02-19T02:00:43.036Z,35.3460
2023-02-19T02:01:45.373Z,35.3520
2023-02-19T02:02:47.690Z,35.3410
2023-02-19T02:03:50.034Z,35.3050
2023-02-19T02:04:50.255Z,35.3050
2023-02-19T02:05:52.542Z,35.3110
2023-02-19T02:06:54.818Z,35.2770
2023-02-19T02:07:57.096Z,35.2820
2023-02-19T02:08:57.313Z,35.2770
2023-02-19T02:09:59.690Z,35.3010
2023-02-19T02:11:02.021Z,35.3240
2023-02-19T02:12:02.217Z,35.3010
2023-02-19T02:13:04.566Z,35.2830
2023-02-19T02:14:06.894Z,35.2780
2023-02-19T02:15:07.110Z,35.2720
2023-02-19T02:16:09.490Z,35.2550
2023-02-19T02:17:11.738Z,35.2630
2023-02-19T02:18:14.028Z,35.2630
2023-02-19T02:19:16.313Z,35.2400
2023-02-19T02:20:18.629Z,35.2440
2023-02-19T02:21:20.919Z,35.2520
2023-02-19T02:22:21.052Z,35.2630
2023-02-19T02:24:10.713Z,35.0940
2023-02-19T02:25:12.931Z,34.9770
2023-02-19T02:26:15.320Z,34.9020
2023-02-19T02:27:17.486Z,34.8750
2023-02-19T02:28:17.606Z,34.8410
2023-02-19T02:29:19.891Z,34.8340
2023-02-19T02:30:22.236Z,34.8230
2023-02-19T02:31:24.795Z,34.8000
2023-02-19T02:32:26.833Z,34.8000
2023-02-19T02:33:29.139Z,34.7880
2023-02-19T02:34:29.271Z,34.7400
2023-02-19T02:35:31.567Z,34.7580
2023-02-19T02:36:33.878Z,34.7350
2023-02-19T02:37:36.117Z,34.7400
2023-02-19T02:38:38.340Z,34.7180
2023-02-19T02:39:40.665Z,34.7180
2023-02-19T02:42:00.472Z,34.7540
2023-02-19T02:43:02.664Z,34.7360
2023-02-19T02:44:04.887Z,34.7050
2023-02-19T02:45:07.139Z,34.6820
2023-02-19T02:46:09.441Z,34.6540
2023-02-19T02:47:09.632Z,34.6600
2023-02-19T02:48:11.893Z,34.6550
2023-02-19T02:49:14.187Z,34.6720
2023-02-19T02:50:16.515Z,34.6720
2023-02-19T02:51:18.804Z,34.6720
2023-02-19T02:52:21.143Z,34.6550
2023-02-19T02:53:21.273Z,34.6480
2023-02-19T02:54:23.591Z,34.6360
2023-02-19T02:55:25.875Z,34.6070
2023-02-19T02:56:30.330Z,34.6200
2023-02-19T02:57:09.029Z,34.6490
2023-02-19T02:58:11.369Z,34.6450
2023-02-19T02:59:11.540Z,34.6330
2023-02-19T03:00:13.881Z,34.6260
2023-02-19T03:01:16.222Z,34.6330
2023-02-19T03:02:18.571Z,34.6210
2023-02-19T03:03:20.872Z,34.6200
2023-02-19T03:05:21.239Z,34.6530
2023-02-19T03:06:23.442Z,34.6330
2023-02-19T03:07:25.667Z,34.6190
2023-02-19T03:08:27.972Z,34.6150
2023-02-19T03:09:30.291Z,34.6470
2023-02-19T03:10:32.523Z,34.6250
2023-02-19T03:11:34.838Z,34.6400
2023-02-19T03:12:35.016Z,34.6250
2023-02-19T03:13:37.432Z,34.6150
2023-02-19T03:14:39.646Z,34.5920
2023-02-19T03:15:41.969Z,34.5860
2023-02-19T03:16:44.276Z,34.5640
2023-02-19T03:17:46.494Z,34.5640
2023-02-19T03:18:46.675Z,34.5700
2023-02-19T03:19:48.945Z,34.5570
2023-02-19T03:20:51.246Z,34.5640
2023-02-19T03:21:53.569Z,34.5570
2023-02-19T03:22:55.924Z,34.5450
2023-02-19T03:23:58.278Z,34.5510
2023-02-19T03:24:58.449Z,34.5340
2023-02-19T03:26:00.799Z,34.5230
2023-02-19T03:27:03.122Z,34.4920
2023-02-19T03:28:05.460Z,34.5170
2023-02-19T03:29:07.829Z,34.5000
2023-02-19T03:30:08.043Z,34.4810
2023-02-19T03:31:10.608Z,34.4870
2023-02-19T03:32:12.664Z,34.4950
2023-02-19T03:33:14.843Z,34.5000
2023-02-19T03:34:17.281Z,34.4820
2023-02-19T03:35:19.518Z,34.4910
2023-02-19T03:36:19.710Z,34.4860
2023-02-19T03:37:22.078Z,34.4910
2023-02-19T03:38:24.328Z,34.5130
2023-02-19T03:39:26.615Z,34.4750
2023-02-19T03:40:28.816Z,34.4860
2023-02-19T03:41:31.091Z,34.4770
2023-02-19T03:42:31.214Z,34.4720
2023-02-19T03:43:34.676Z,34.4750
2023-02-19T03:44:35.726Z,34.4800
2023-02-19T03:45:37.938Z,34.4690
2023-02-19T03:46:40.158Z,34.4750
2023-02-19T03:47:42.373Z,34.4540
2023-02-19T03:48:44.583Z,34.4510
2023-02-19T03:49:49.021Z,34.4690
2023-02-19T03:50:49.081Z,34.4580
2023-02-19T03:51:51.283Z,34.4770
2023-02-19T03:52:53.511Z,34.4690
2023-02-19T03:53:53.583Z,34.4580
2023-02-19T03:54:55.884Z,34.4630
2023-02-19T03:55:58.058Z,34.4720
2023-02-19T03:57:00.300Z,34.4450
2023-02-19T03:58:02.522Z,34.4240
2023-02-19T03:59:04.768Z,34.4010
2023-02-19T04:00:07.121Z,34.4390
2023-02-19T04:01:09.842Z,34.4170
2023-02-19T04:02:11.744Z,34.4490
2023-02-19T04:03:11.871Z,34.4390
2023-02-19T04:04:14.209Z,34.4220
2023-02-19T04:05:16.561Z,34.4220
2023-02-19T04:06:18.878Z,34.4380
2023-02-19T04:07:21.224Z,34.4210
2023-02-19T04:08:21.433Z,34.4380
2023-02-19T04:09:23.770Z,34.4320
2023-02-19T04:10:26.150Z,34.4170
2023-02-19T04:11:28.451Z,34.4380
2023-02-19T04:12:30.805Z,34.4150
2023-02-19T04:13:30.976Z,34.4000
2023-02-19T04:14:33.309Z,34.3800
2023-02-19T04:15:35.669Z,34.3880
2023-02-19T04:16:37.981Z,34.3530
2023-02-19T04:17:40.211Z,34.3270
2023-02-19T04:18:40.345Z,34.3310
2023-02-19T04:19:42.642Z,34.3360
2023-02-19T04:20:45.079Z,34.3360
2023-02-19T04:21:47.237Z,34.3150
2023-02-19T04:22:49.536Z,34.3100
2023-02-19T04:23:51.793Z,34.3010
2023-02-19T04:24:54.067Z,34.3250
2023-02-19T04:25:56.470Z,34.3190
2023-02-19T04:26:56.470Z,34.3010
2023-02-19T04:27:58.737Z,34.2930
2023-02-19T04:29:01.015Z,34.3250
2023-02-19T04:30:03.334Z,34.3190
2023-02-19T04:31:05.609Z,34.3010
2023-02-19T04:32:07.834Z,34.3110
2023-02-19T04:33:10.078Z,34.3280
2023-02-19T04:34:12.317Z,34.2880
2023-02-19T04:35:12.421Z,34.2840
2023-02-19T04:36:14.812Z,34.2990
2023-02-19T04:37:16.953Z,34.2780
2023-02-19T04:38:19.244Z,34.2820
2023-02-19T04:39:21.496Z,34.2900
2023-02-19T04:40:23.753Z,34.2940
2023-02-19T04:41:26.042Z,34.2990
2023-02-19T04:42:28.302Z,34.3060
2023-02-19T04:43:28.450Z,34.2940
2023-02-19T04:44:30.724Z,34.2950
2023-02-19T04:45:33.017Z,34.3050
2023-02-19T04:46:35.364Z,34.3000
2023-02-19T04:47:37.667Z,34.2820
2023-02-19T04:48:40.011Z,34.2730
2023-02-19T04:49:40.119Z,34.2670
2023-02-19T04:50:42.426Z,34.2820
2023-02-19T04:51:44.819Z,34.2820
2023-02-19T04:52:47.084Z,34.2940
2023-02-19T04:53:49.347Z,34.2820
2023-02-19T04:54:51.705Z,34.2770
2023-02-19T04:55:51.806Z,34.2730
2023-02-19T04:56:54.166Z,34.2430
2023-02-19T04:57:56.413Z,34.2730
2023-02-19T04:58:58.710Z,34.2430
2023-02-19T05:00:01.014Z,34.2460
2023-02-19T05:01:03.308Z,34.2110
2023-02-19T05:02:05.624Z,34.2320
2023-02-19T05:03:05.801Z,34.2500
2023-02-19T05:04:08.161Z,34.2460
2023-02-19T05:05:10.464Z,34.2430
2023-02-19T05:06:12.794Z,34.2560
2023-02-19T05:07:15.267Z,34.2500
2023-02-19T05:08:15.319Z,34.2370
2023-02-19T05:09:17.657Z,34.2500
2023-02-19T05:10:20.002Z,34.2560
2023-02-19T05:11:22.340Z,34.2940
2023-02-19T05:12:24.660Z,34.2630
2023-02-19T05:13:26.996Z,34.2670
2023-02-19T05:14:27.169Z,34.2640
2023-02-19T05:15:29.511Z,34.2560
2023-02-19T05:16:31.841Z,34.2570
2023-02-19T05:17:34.215Z,34.2610
2023-02-19T05:18:36.533Z,34.2880
2023-02-19T05:19:36.713Z,34.3110
2023-02-19T05:20:39.041Z,34.2860
2023-02-19T05:21:41.326Z,34.3070
2023-02-19T05:22:43.592Z,34.2860
2023-02-19T05:23:45.866Z,34.2860
2023-02-19T05:24:48.081Z,34.2860
2023-02-19T05:25:50.342Z,34.3210
2023-02-19T05:26:50.444Z,34.3100
2023-02-19T05:27:52.741Z,34.3360
2023-02-19T05:28:54.953Z,34.3490
2023-02-19T05:29:57.209Z,34.3430
2023-02-19T05:30:59.474Z,34.3670
2023-02-19T05:32:01.665Z,34.3900
2023-02-19T05:34:23.465Z,34.5310
2023-02-19T05:35:24.528Z,34.5350
2023-02-19T05:36:25.772Z,34.5760
2023-02-19T05:37:27.972Z,34.5650
2023-02-19T05:38:30.212Z,34.5960
2023-02-19T05:39:32.499Z,34.5920
2023-02-19T05:40:32.575Z,34.5860
2023-02-19T05:41:34.841Z,34.5980
2023-02-19T05:42:37.113Z,34.6260
2023-02-19T05:43:39.372Z,34.7030
2023-02-19T05:44:41.674Z,34.6780
2023-02-19T05:45:43.903Z,34.5240
2023-02-19T05:46:46.227Z,34.3000
2023-02-19T05:47:48.476Z,34.2920
2023-02-19T05:48:48.569Z,34.3000
2023-02-19T05:49:50.998Z,34.2370
2023-02-19T05:50:53.143Z,34.2500
2023-02-19T05:51:55.440Z,34.2580
2023-02-19T05:52:57.723Z,34.2480
2023-02-19T05:54:00.029Z,34.3020
2023-02-19T05:55:02.356Z,34.4740
2023-02-19T05:56:02.436Z,34.5750
2023-02-19T05:57:04.715Z,34.8040
2023-02-19T05:58:07.020Z,34.7820
2023-02-19T05:59:09.276Z,34.7390
2023-02-19T06:00:11.634Z,34.7330
2023-02-19T06:01:13.717Z,34.7170
2023-02-19T06:02:15.979Z,34.6790
2023-02-19T06:03:18.249Z,34.6690
2023-02-19T06:04:18.373Z,34.6800
2023-02-19T06:05:20.660Z,34.6520
2023-02-19T06:06:22.867Z,34.6310
2023-02-19T06:07:25.134Z,34.6230
2023-02-19T06:08:27.434Z,34.6020
2023-02-19T06:09:29.731Z,34.6420
2023-02-19T06:10:32.105Z,34.6600
2023-02-19T06:11:32.197Z,34.6730
2023-02-19T06:12:34.426Z,34.6730
2023-02-19T06:13:36.719Z,34.6390
2023-02-19T06:14:38.989Z,34.6970
2023-02-19T06:15:41.249Z,34.7250
2023-02-19T06:16:43.520Z,34.7200
2023-02-19T06:17:45.766Z,34.7270
2023-02-19T06:18:48.009Z,34.7400
2023-02-19T06:19:48.139Z,34.7270
2023-02-19T06:20:50.470Z,34.7510
2023-02-19T06:21:52.711Z,34.7200
2023-02-19T06:22:55.013Z,34.7260
2023-02-19T06:23:57.316Z,34.7380
2023-02-19T06:24:59.618Z,34.7260
2023-02-19T06:26:01.935Z,34.7790
2023-02-19T06:27:02.017Z,34.7670
2023-02-19T06:28:04.224Z,34.7610
2023-02-19T06:29:06.498Z,34.7900
2023-02-19T06:30:08.810Z,34.7900
2023-02-19T06:31:11.555Z,34.8040
2023-02-19T06:32:13.449Z,34.8180
2023-02-19T06:33:15.697Z,34.8210
2023-02-19T06:34:18.014Z,34.8000
2023-02-19T06:35:18.208Z,34.8170
2023-02-19T06:36:20.564Z,34.8290
2023-02-19T06:37:22.876Z,34.8340
2023-02-19T06:38:25.210Z,34.8340
2023-02-19T06:39:27.552Z,34.8340
2023-02-19T06:40:27.723Z,34.8580
2023-02-19T06:41:30.016Z,34.8290
2023-02-19T06:42:32.260Z,34.8340
2023-02-19T06:43:34.568Z,34.8340
2023-02-19T06:44:36.861Z,34.8340
2023-02-19T06:45:39.148Z,34.8530
2023-02-19T06:46:39.427Z,34.8640
2023-02-19T06:47:41.681Z,34.8700
2023-02-19T06:48:44.004Z,34.8870
2023-02-19T06:49:46.344Z,34.9110
2023-02-19T06:50:48.667Z,34.9280
2023-02-19T06:51:48.852Z,34.9800
2023-02-19T06:52:51.152Z,34.9620
2023-02-19T06:53:53.496Z,34.9750
2023-02-19T06:54:55.808Z,34.9750
2023-02-19T06:55:57.042Z,34.9920
2023-02-19T06:56:59.438Z,34.9760
2023-02-19T06:57:59.581Z,34.7040
2023-02-19T06:59:01.885Z,34.5080
2023-02-19T07:00:04.229Z,34.5040
2023-02-19T07:01:06.699Z,34.4020
2023-02-19T07:02:08.999Z,34.4000
2023-02-19T07:03:11.326Z,34.3960
2023-02-19T07:04:11.561Z,34.4440
2023-02-19T07:05:13.867Z,34.4550
2023-02-19T07:06:16.224Z,34.5260
2023-02-19T07:07:18.606Z,34.6720
2023-02-19T07:08:20.899Z,34.7410
2023-02-19T07:09:23.237Z,35.3340
2023-02-19T07:10:23.456Z,35.4040
2023-02-19T07:11:25.828Z,35.3910
2023-02-19T07:12:28.237Z,35.3390
2023-02-19T07:13:28.404Z,35.3070
2023-02-19T07:14:30.765Z,35.2530
2023-02-19T07:15:33.111Z,35.2020
2023-02-19T07:16:35.542Z,35.1400
2023-02-19T07:17:37.820Z,35.1300
2023-02-19T07:18:40.105Z,35.0860
2023-02-19T07:19:42.422Z,35.0500
2023-02-19T07:20:44.762Z,35.0180
2023-02-19T07:21:47.086Z,34.9910
2023-02-19T07:22:47.399Z,34.9850
2023-02-19T07:23:49.613Z,34.9560
2023-02-19T07:24:51.980Z,34.9680
2023-02-19T07:25:54.331Z,34.9620
2023-02-19T07:26:56.646Z,34.9620
2023-02-19T07:27:58.996Z,34.9560
2023-02-19T07:29:01.308Z,34.9350
2023-02-19T07:30:03.703Z,34.9490
2023-02-19T07:31:06.172Z,34.9350
2023-02-19T07:32:06.255Z,34.9110
2023-02-19T07:33:10.451Z,34.9060
2023-02-19T07:34:10.879Z,34.9020
2023-02-19T07:35:13.223Z,34.8550
2023-02-19T07:36:15.518Z,34.8780
2023-02-19T07:37:17.853Z,34.8720
2023-02-19T07:38:20.177Z,34.8830
2023-02-19T07:39:22.454Z,34.8780
2023-02-19T07:40:24.745Z,34.8780
2023-02-19T07:41:27.057Z,34.8660
2023-02-19T07:42:29.329Z,34.8330
2023-02-19T07:43:31.668Z,34.8550
2023-02-19T07:44:33.946Z,34.8300
2023-02-19T07:45:34.207Z,34.8490
2023-02-19T07:46:36.386Z,34.8370
2023-02-19T07:47:38.709Z,34.8270
2023-02-19T07:48:41.074Z,34.8370
2023-02-19T07:49:43.371Z,34.8020
2023-02-19T07:50:45.694Z,34.7920
2023-02-19T07:51:47.985Z,34.7850
2023-02-19T07:52:50.233Z,34.8030
2023-02-19T07:53:52.535Z,34.8140
2023-02-19T07:54:54.726Z,34.7960
2023-02-19T07:55:54.864Z,34.7810
2023-02-19T07:56:57.164Z,34.7810
2023-02-19T07:57:59.472Z,34.7700
2023-02-19T07:59:01.800Z,34.7750
2023-02-19T08:00:04.098Z,34.7580
2023-02-19T08:01:06.431Z,34.7750
2023-02-19T08:02:08.708Z,34.7430
2023-02-19T08:03:08.892Z,34.7470
2023-02-19T08:04:11.169Z,34.7370
2023-02-19T08:05:13.405Z,34.7290
2023-02-19T08:06:15.782Z,34.7430
2023-02-19T08:07:17.976Z,34.7080
2023-02-19T08:08:20.295Z,34.7260
2023-02-19T08:09:22.598Z,34.7260
2023-02-19T08:10:22.745Z,34.7230
2023-02-19T08:11:25.019Z,34.7140
2023-02-19T08:12:27.344Z,34.7290
2023-02-19T08:13:29.658Z,34.7140
2023-02-19T08:14:32.013Z,34.6810
2023-02-19T08:15:34.290Z,34.6900
2023-02-19T08:16:43.034Z,34.6960
2023-02-19T08:17:38.871Z,34.7060
2023-02-19T08:18:41.196Z,34.6900
2023-02-19T08:19:43.581Z,34.6950
2023-02-19T08:20:43.649Z,34.7000
2023-02-19T08:21:45.956Z,34.7020
2023-02-19T08:22:48.263Z,34.6740
2023-02-19T08:23:51.251Z,34.6850
2023-02-19T08:24:52.982Z,34.6850
2023-02-19T08:25:55.146Z,34.6750
2023-02-19T08:26:57.441Z,34.6520
2023-02-19T08:27:59.726Z,34.6640
2023-02-19T08:29:02.030Z,34.6520
2023-02-19T08:30:04.461Z,34.6580
2023-02-19T08:31:04.531Z,34.6520
2023-02-19T08:32:06.701Z,34.6300
2023-02-19T08:33:08.875Z,34.6300
2023-02-19T08:34:11.100Z,34.6400
2023-02-19T08:35:13.425Z,34.6270
2023-02-19T08:36:15.634Z,34.6050
2023-02-19T08:37:17.907Z,34.5990
2023-02-19T08:38:20.193Z,34.6220
2023-02-19T08:39:21.229Z,34.5820
2023-02-19T08:40:22.664Z,34.6000
2023-02-19T08:41:24.927Z,34.6300
2023-02-19T08:42:27.236Z,34.6060
2023-02-19T08:43:29.499Z,34.5880
2023-02-19T08:44:31.782Z,34.6110
2023-02-19T08:45:34.100Z,34.6350
2023-02-19T08:46:34.638Z,34.6110
2023-02-19T08:47:36.460Z,34.6060
2023-02-19T08:48:38.785Z,34.6110
2023-02-19T08:49:41.104Z,34.5990
2023-02-19T08:50:41.301Z,34.5990
2023-02-19T08:51:43.588Z,34.5880
2023-02-19T08:52:45.919Z,34.5770
2023-02-19T08:53:46.104Z,34.5770
2023-02-19T08:54:48.429Z,34.5650
2023-02-19T08:55:50.808Z,34.5710
2023-02-19T08:56:53.093Z,34.5580
2023-02-19T08:57:55.420Z,34.5770
2023-02-19T08:58:57.760Z,34.5650
2023-02-19T08:59:58.017Z,34.5610
2023-02-19T09:01:00.459Z,34.5500
2023-02-19T09:02:02.706Z,34.5650
2023-02-19T09:03:02.953Z,34.5500
2023-02-19T09:04:05.358Z,34.5520
2023-02-19T09:05:07.717Z,34.5820
2023-02-19T09:06:08.215Z,34.5710
2023-02-19T09:07:10.320Z,34.5560
2023-02-19T09:08:12.692Z,34.5470
2023-02-19T09:09:12.901Z,34.5820
2023-02-19T09:10:15.278Z,34.5580
2023-02-19T09:11:17.795Z,34.5520
2023-02-19T09:12:17.854Z,34.5560
2023-02-19T09:13:20.221Z,34.5500
2023-02-19T09:14:22.599Z,34.5260
2023-02-19T09:15:22.799Z,34.5260
2023-02-19T09:16:25.172Z,34.5090
2023-02-19T09:17:27.483Z,34.5130
2023-02-19T09:18:29.811Z,34.5260
2023-02-19T09:19:32.126Z,34.5070
2023-02-19T09:20:34.454Z,34.4800
2023-02-19T09:21:36.813Z,34.4850
2023-02-19T09:22:39.032Z,34.4750
2023-02-19T09:23:41.365Z,34.4660
2023-02-19T09:24:43.726Z,34.4660
2023-02-19T09:25:46.085Z,34.4720
2023-02-19T09:26:48.504Z,34.4790
2023-02-19T09:27:48.692Z,34.4920
2023-02-19T09:28:51.054Z,34.4900
2023-02-19T09:29:53.391Z,34.5190
2023-02-19T09:30:55.825Z,34.5130
2023-02-19T09:31:58.188Z,34.5070
2023-02-19T09:33:00.384Z,34.4960
2023-02-19T09:34:00.567Z,34.4900
2023-02-19T09:35:02.963Z,34.4920
2023-02-19T09:36:05.350Z,34.5130
2023-02-19T09:37:05.621Z,34.4860
2023-02-19T09:38:07.934Z,34.4860
2023-02-19T09:39:10.309Z,34.4920
2023-02-19T09:40:10.523Z,34.4860
2023-02-19T09:41:13.118Z,34.4650
2023-02-19T09:42:15.209Z,34.4650
2023-02-19T09:43:17.526Z,34.4710
2023-02-19T09:44:19.840Z,34.4920
2023-02-19T09:45:22.185Z,34.4860
2023-02-19T09:46:24.519Z,34.4920
2023-02-19T09:47:26.853Z,34.4710
2023-02-19T09:48:29.135Z,34.5030
2023-02-19T09:49:31.459Z,34.4880
2023-02-19T09:50:33.797Z,34.4770
2023-02-19T09:51:36.172Z,34.4950
2023-02-19T09:52:36.410Z,34.5060
2023-02-19T09:53:38.742Z,34.5210
2023-02-19T09:54:41.094Z,34.5440
2023-02-19T09:55:43.403Z,34.5290
2023-02-19T09:56:45.762Z,34.5290
2023-02-19T09:57:48.161Z,34.5330
2023-02-19T09:58:48.321Z,34.5120
2023-02-19T09:59:50.692Z,34.5390
2023-02-19T10:00:53.045Z,34.5330
2023-02-19T10:01:53.342Z,34.5330
2023-02-19T10:02:55.674Z,34.5330
2023-02-19T10:03:58.016Z,34.5330
2023-02-19T10:04:58.206Z,34.5180
2023-02-19T10:06:00.486Z,34.5060
2023-02-19T10:07:02.794Z,34.5000
2023-02-19T10:08:05.072Z,34.4790
2023-02-19T10:09:05.180Z,34.4610
2023-02-19T10:10:07.475Z,34.4660
2023-02-19T10:11:10.214Z,34.4660
2023-02-19T10:12:12.133Z,34.4770
2023-02-19T10:13:14.540Z,34.4850
2023-02-19T10:14:16.836Z,34.4850
2023-02-19T10:15:19.167Z,34.4840
2023-02-19T10:16:21.465Z,34.4450
2023-02-19T10:17:23.776Z,34.4420
2023-02-19T10:18:26.097Z,34.4240
2023-02-19T10:19:28.434Z,34.4450
2023-02-19T10:20:30.751Z,34.4170
2023-02-19T10:21:33.077Z,34.3880
2023-02-19T10:22:35.338Z,34.3830
2023-02-19T10:23:37.675Z,34.3940
2023-02-19T10:24:39.960Z,34.3580
2023-02-19T10:25:42.280Z,34.3620
2023-02-19T10:26:44.602Z,34.3630
2023-02-19T10:27:46.913Z,34.3460
2023-02-19T10:28:49.199Z,34.3510
2023-02-19T10:29:51.451Z,34.3270
2023-02-19T10:30:53.771Z,34.3270
2023-02-19T10:31:54.070Z,34.3190
2023-02-19T10:32:56.178Z,34.2660
2023-02-19T10:33:58.494Z,34.2560
2023-02-19T10:35:00.813Z,34.2020
2023-02-19T10:36:03.103Z,34.1850
2023-02-19T10:37:05.395Z,34.1910
2023-02-19T10:38:07.698Z,34.2230
2023-02-19T10:39:07.892Z,34.2430
2023-02-19T10:40:10.150Z,34.2430
2023-02-19T10:41:12.734Z,34.2370
2023-02-19T10:42:14.683Z,34.1960
2023-02-19T10:43:17.026Z,34.1360
2023-02-19T10:44:19.416Z,34.0810
2023-02-19T10:45:21.741Z,34.0640
2023-02-19T10:46:24.196Z,34.0890
2023-02-19T10:47:26.394Z,34.1050
2023-02-19T10:48:28.699Z,34.1110
2023-02-19T10:49:31.005Z,34.1110
2023-02-19T10:50:33.287Z,34.1270
2023-02-19T10:51:35.554Z,34.1440
2023-02-19T10:52:37.853Z,34.1110
2023-02-19T10:53:40.128Z,34.0990
2023-02-19T10:54:42.396Z,34.1270
2023-02-19T10:55:42.507Z,34.1110
2023-02-19T10:56:44.818Z,34.1120
2023-02-19T10:57:47.141Z,34.0910
2023-02-19T10:58:49.404Z,34.0820
2023-02-19T10:59:49.592Z,34.0880
2023-02-19T11:00:51.820Z,34.0730
2023-02-19T11:01:54.255Z,34.0320
2023-02-19T11:02:56.412Z,33.9370
2023-02-19T11:03:56.523Z,33.9430
2023-02-19T11:04:58.846Z,34.0040
2023-02-19T11:06:01.065Z,34.0520
2023-02-19T11:07:03.359Z,34.0100
2023-02-19T11:08:03.480Z,34.0320
2023-02-19T11:09:05.733Z,34.0730
2023-02-19T11:10:07.994Z,34.0320
2023-02-19T11:11:10.537Z,34.0410
2023-02-19T11:12:10.371Z,34.0450
2023-02-19T11:13:12.651Z,34.0630
2023-02-19T11:14:51.477Z,33.9500
2023-02-19T11:15:53.786Z,33.8220
2023-02-19T11:16:55.985Z,33.7660
2023-02-19T11:17:58.261Z,33.7160
2023-02-19T11:19:00.533Z,33.6480
2023-02-19T11:20:00.681Z,33.6310
2023-02-19T11:21:02.987Z,33.6260
2023-02-19T11:22:05.244Z,33.6220
2023-02-19T11:23:07.558Z,33.6380
2023-02-19T11:24:11.986Z,33.6270
2023-02-19T11:24:59.425Z,33.6320
2023-02-19T11:25:57.262Z,33.5910
2023-02-19T11:26:59.548Z,33.5480
2023-02-19T11:28:01.735Z,33.5310
2023-02-19T11:29:03.943Z,33.5520
2023-02-19T11:30:06.151Z,33.5260
2023-02-19T11:31:08.582Z,33.5100
2023-02-19T11:32:10.618Z,33.4740
2023-02-19T11:33:12.631Z,33.4860
2023-02-19T11:34:14.775Z,33.4980
2023-02-19T11:35:16.933Z,33.4530
2023-02-19T11:36:19.124Z,33.4250
2023-02-19T11:37:21.305Z,33.4420
2023-02-19T11:38:23.410Z,33.4210
2023-02-19T11:39:25.555Z,33.4500
2023-02-19T11:40:27.728Z,33.4450
2023-02-19T11:41:29.891Z,33.5330
2023-02-19T11:42:32.101Z,33.5220
2023-02-19T11:43:34.217Z,33.5860
2023-02-19T11:44:36.403Z,33.5720
2023-02-19T11:45:38.532Z,33.5940
2023-02-19T11:46:40.736Z,33.6000
2023-02-19T11:47:42.922Z,33.5780
2023-02-19T11:48:45.066Z,33.5620
2023-02-19T11:49:47.226Z,33.5390
2023-02-19T11:50:49.399Z,33.4920
2023-02-19T11:51:52.764Z,33.4000
2023-02-19T11:52:53.787Z,33.3760
2023-02-19T11:53:55.923Z,33.3650
2023-02-19T11:54:58.089Z,33.2810
2023-02-19T11:55:58.131Z,33.2590
2023-02-19T11:57:00.403Z,33.2600
2023-02-19T11:58:02.644Z,33.2550
2023-02-19T11:59:04.881Z,33.2470
2023-02-19T12:00:07.098Z,33.2410
2023-02-19T12:01:09.938Z,33.2590
2023-02-19T12:02:11.652Z,33.2590
2023-02-19T12:03:13.924Z,33.3060
2023-02-19T12:04:16.108Z,33.2820
2023-02-19T12:05:18.407Z,33.2870
2023-02-19T12:06:20.602Z,33.3620
2023-02-19T12:07:22.980Z,33.3840
2023-02-19T12:08:22.999Z,33.3840
2023-02-19T12:09:25.255Z,33.4230
2023-02-19T12:10:27.511Z,33.3780
2023-02-19T12:11:29.768Z,33.3920
2023-02-19T12:12:31.951Z,33.3800
2023-02-19T12:13:34.233Z,33.3920
2023-02-19T12:14:36.436Z,33.4130
2023-02-19T12:15:38.694Z,33.3850
2023-02-19T12:16:41.012Z,33.3970
2023-02-19T12:17:41.107Z,33.3970
2023-02-19T12:18:43.407Z,33.3590
2023-02-19T12:19:45.645Z,33.3640
2023-02-19T12:20:47.868Z,33.3620
2023-02-19T12:21:50.112Z,33.3970
2023-02-19T12:22:52.319Z,33.3980
2023-02-19T12:23:54.600Z,33.4530
2023-02-19T12:24:56.835Z,33.4570
2023-02-19T12:25:59.014Z,33.4600
2023-02-19T12:26:59.075Z,33.4610
2023-02-19T12:28:01.289Z,33.4330
2023-02-19T12:29:01.411Z,33.4240
2023-02-19T12:30:03.630Z,33.4080
2023-02-19T12:31:05.793Z,33.4030
2023-02-19T12:32:08.064Z,33.4240
2023-02-19T12:33:10.240Z,33.4300
2023-02-19T12:34:12.541Z,33.4530